NCAR-RAP Real-Time Weather Data

Output produced by METARs form (12 May 2021  10:27 UTC)
found at http://weather.rap.ucar.edu/surface/
 
KLEX 120954Z 06008KT 10SM BKN110 07/M01 A3032 RMK AO2 SLP266 T00721006
KLEX 120854Z 06008KT 10SM OVC120 08/M01 A3030 RMK AO2 SLP259 T00781011 55001
KLEX 120754Z 05009KT 10SM BKN120 08/00 A3029 RMK AO2 SLP257 T00780000
KLEX 120654Z 05010KT 10SM SCT120 08/M01 A3029 RMK AO2 SLP255 T00831006
KLEX 120554Z 05011G21KT 10SM OVC120 09/00 A3030 RMK AO2 SLP260 T00890000 10122 20089 53005
KLEX 120454Z 04010KT 10SM OVC120 09/00 A3029 RMK AO2 SLP256 T00940000 401720033
KLEX 120354Z 04010KT 10SM BKN120 10/00 A3029 RMK AO2 SLP255 T01000000
KLEX 120254Z 03009KT 10SM FEW120 10/01 A3028 RMK AO2 SLP254 T01000006 53020
KLEX 120154Z 01011KT 10SM BKN120 11/01 A3026 RMK AO2 SLP245 T01110011
KLEX 120054Z 03008KT 10SM BKN120 12/01 A3025 RMK AO2 SLP243 T01170011
KLEX 112354Z 02009KT 10SM BKN120 12/02 A3022 RMK AO2 SLP234 T01220022 10172 20122 53004
KLEX 112254Z 05010KT 10SM FEW120 13/02 A3021 RMK AO2 SLP230 T01330022
KLEX 112154Z 36010KT 10SM FEW050 15/04 A3021 RMK AO2 SLP230 T01500039
KLEX 112054Z 02007KT 10SM BKN045 16/06 A3021 RMK AO2 SLP230 T01610061 55005
KLEX 111954Z AUTO 02011G18KT 10SM FEW037 BKN047 BKN060 15/07 A3020 RMK AO2 SLP226 T01500067
KLEX 111854Z AUTO 36010KT 10SM FEW039 BKN055 BKN070 14/06 A3022 RMK AO2 SLP233 T01440061